createdAt,value
2019-03-20T00:01:43.232Z,27.73
2019-03-20T00:04:03.027Z,32.23
2019-03-20T00:06:31.233Z,30.10
2019-03-20T00:09:02.099Z,30.17
2019-03-20T00:11:32.711Z,30.90
2019-03-20T00:14:03.022Z,29.90
2019-03-20T00:16:31.274Z,29.13
2019-03-20T00:18:59.475Z,43.07
2019-03-20T00:21:30.194Z,44.00
2019-03-20T00:24:02.990Z,36.37
2019-03-20T00:26:33.747Z,37.83
2019-03-20T00:29:06.496Z,38.03
2019-03-20T00:31:37.919Z,35.00
2019-03-20T00:34:06.258Z,33.87
2019-03-20T00:36:39.034Z,33.67
2019-03-20T00:39:07.187Z,31.67
2019-03-20T00:41:40.090Z,30.87
2019-03-20T00:44:10.716Z,25.33
2019-03-20T00:46:38.864Z,25.13
2019-03-20T00:49:09.387Z,28.23
2019-03-20T00:51:41.827Z,25.80
2019-03-20T00:54:14.577Z,26.40
2019-03-20T00:56:47.103Z,29.07
2019-03-20T00:59:15.362Z,30.87
2019-03-20T01:01:45.845Z,31.17
2019-03-20T01:04:13.983Z,35.63
2019-03-20T01:06:44.625Z,35.47
2019-03-20T01:09:15.208Z,31.77
2019-03-20T01:11:43.685Z,30.53
2019-03-20T01:14:14.250Z,34.10
2019-03-20T01:16:47.273Z,28.07
2019-03-20T01:19:15.411Z,30.83
2019-03-20T01:21:46.065Z,28.13
2019-03-20T01:24:14.377Z,25.73
2019-03-20T01:26:47.000Z,26.93
2019-03-20T01:29:15.196Z,26.73
2019-03-20T01:31:45.779Z,28.17
2019-03-20T01:34:15.063Z,27.13
2019-03-20T01:36:43.304Z,26.20
2019-03-20T01:39:11.444Z,25.17
2019-03-20T01:41:41.961Z,25.43
2019-03-20T01:44:10.185Z,24.20
2019-03-20T01:46:40.647Z,26.40
2019-03-20T01:49:15.705Z,36.40
2019-03-20T01:51:43.930Z,32.57
2019-03-20T01:54:12.314Z,34.30
2019-03-20T01:56:45.373Z,33.40
2019-03-20T01:59:13.753Z,33.70
2019-03-20T02:01:44.372Z,33.13
2019-03-20T02:04:19.110Z,29.33
2019-03-20T02:06:49.914Z,31.00
2019-03-20T02:09:20.528Z,30.17
2019-03-20T02:11:53.358Z,29.63
2019-03-20T02:14:24.000Z,30.40
2019-03-20T02:16:52.257Z,27.23
2019-03-20T02:19:22.838Z,24.33
2019-03-20T02:21:51.027Z,20.53
2019-03-20T02:24:21.590Z,22.57
2019-03-20T02:26:49.968Z,20.40
2019-03-20T02:29:20.703Z,20.20
2019-03-20T02:31:59.946Z,25.20
2019-03-20T02:34:32.575Z,26.10
2019-03-20T02:37:01.647Z,22.40
2019-03-20T02:39:32.284Z,21.17
2019-03-20T02:42:00.430Z,21.80
2019-03-20T02:44:33.550Z,21.97
2019-03-20T02:47:01.794Z,25.40
2019-03-20T02:49:29.960Z,23.20
2019-03-20T02:52:00.464Z,22.53
2019-03-20T02:54:28.610Z,24.00
2019-03-20T02:56:56.803Z,22.43
2019-03-20T02:59:24.996Z,20.80
2019-03-20T03:01:53.363Z,20.33
2019-03-20T03:04:26.060Z,21.47
2019-03-20T03:06:54.319Z,19.97
2019-03-20T03:09:22.532Z,21.60
2019-03-20T03:11:53.196Z,24.67
2019-03-20T03:14:21.563Z,26.37
2019-03-20T03:16:52.065Z,29.60
2019-03-20T03:19:22.625Z,27.97
2019-03-20T03:21:50.828Z,24.97
2019-03-20T03:24:21.400Z,28.17
2019-03-20T03:26:51.919Z,27.93
2019-03-20T03:29:22.540Z,25.97
2019-03-20T03:31:53.097Z,25.73
2019-03-20T03:34:21.297Z,21.13
2019-03-20T03:36:51.861Z,23.43
2019-03-20T03:39:23.309Z,24.27
2019-03-20T03:41:53.947Z,24.27
2019-03-20T03:44:24.507Z,23.47
2019-03-20T03:46:54.592Z,22.90
2019-03-20T03:49:25.057Z,24.20
2019-03-20T03:51:55.733Z,23.93
2019-03-20T03:54:24.002Z,25.77
2019-03-20T03:56:52.276Z,25.97
2019-03-20T03:59:22.928Z,25.13
2019-03-20T04:01:53.642Z,26.13
2019-03-20T04:04:24.170Z,27.57
2019-03-20T04:06:54.842Z,28.03
2019-03-20T04:09:23.011Z,26.30
2019-03-20T04:11:51.216Z,26.27
2019-03-20T04:14:19.404Z,27.23
2019-03-20T04:16:47.585Z,26.77
2019-03-20T04:19:15.869Z,25.87
2019-03-20T04:21:44.212Z,31.83
2019-03-20T04:24:19.176Z,36.97
2019-03-20T04:26:52.110Z,43.10
2019-03-20T04:29:22.707Z,37.07
2019-03-20T04:31:50.889Z,37.17
2019-03-20T04:34:19.274Z,37.53
2019-03-20T04:36:52.084Z,39.77
2019-03-20T04:39:22.711Z,34.07
2019-03-20T04:41:54.216Z,33.97
2019-03-20T04:44:22.481Z,33.63
2019-03-20T04:46:52.901Z,29.53
2019-03-20T04:49:25.580Z,25.37
2019-03-20T04:51:58.261Z,28.60
2019-03-20T04:54:28.927Z,27.13
2019-03-20T04:56:57.173Z,24.10
2019-03-20T04:59:25.413Z,24.77
2019-03-20T05:01:53.605Z,24.90
2019-03-20T05:04:21.884Z,24.17
2019-03-20T05:06:58.844Z,22.17
2019-03-20T05:09:24.670Z,21.83
2019-03-20T05:11:52.977Z,22.43
2019-03-20T05:14:21.364Z,23.60
2019-03-20T05:17:00.638Z,23.10
2019-03-20T05:19:28.783Z,22.70
2019-03-20T05:21:57.139Z,23.30
2019-03-20T05:24:27.462Z,23.50
2019-03-20T05:26:58.108Z,22.67
2019-03-20T05:29:26.388Z,24.33
2019-03-20T05:31:54.540Z,27.20
2019-03-20T05:34:22.726Z,28.73
2019-03-20T05:36:53.204Z,29.57
2019-03-20T05:39:23.638Z,30.00
2019-03-20T05:42:00.694Z,30.17
2019-03-20T05:44:29.887Z,30.37
2019-03-20T05:47:00.471Z,30.13
2019-03-20T05:49:30.951Z,31.47
2019-03-20T05:51:59.184Z,36.23
2019-03-20T05:54:29.737Z,34.77
2019-03-20T05:57:00.247Z,34.43
2019-03-20T05:59:30.807Z,35.07
2019-03-20T06:02:01.325Z,37.07
2019-03-20T06:04:34.071Z,39.70
2019-03-20T06:07:02.319Z,40.47
2019-03-20T06:09:36.782Z,50.03
2019-03-20T06:12:04.939Z,55.20
2019-03-20T06:14:35.250Z,89.00
2019-03-20T06:17:05.773Z,99.20
2019-03-20T06:19:36.297Z,87.77
2019-03-20T06:22:06.916Z,71.23
2019-03-20T06:24:35.193Z,100.23
2019-03-20T06:27:05.708Z,88.40
2019-03-20T06:29:36.329Z,68.60
2019-03-20T06:32:06.786Z,93.83
2019-03-20T06:34:37.614Z,96.77
2019-03-20T06:37:05.816Z,82.53
2019-03-20T06:39:34.596Z,71.00
2019-03-20T06:42:04.808Z,88.80
2019-03-20T06:44:33.075Z,72.43
2019-03-20T06:47:04.292Z,109.60
2019-03-20T06:49:32.595Z,76.03
2019-03-20T06:52:00.862Z,39.83
2019-03-20T06:54:31.519Z,34.10
2019-03-20T06:57:02.016Z,28.30
2019-03-20T06:59:37.261Z,25.90
2019-03-20T07:02:10.349Z,20.13
2019-03-20T07:04:47.534Z,36.70
2019-03-20T07:07:25.760Z,23.73
2019-03-20T07:10:03.951Z,18.97
2019-03-20T07:12:32.558Z,19.10
2019-03-20T07:15:03.823Z,16.80
2019-03-20T07:17:34.626Z,16.67
2019-03-20T07:20:04.188Z,18.53
2019-03-20T07:22:34.740Z,22.57
2019-03-20T07:25:05.909Z,26.83
2019-03-20T07:27:39.192Z,21.47
2019-03-20T07:30:08.979Z,20.33
2019-03-20T07:32:41.874Z,23.53
2019-03-20T07:35:12.280Z,23.00
2019-03-20T07:37:40.507Z,27.40
2019-03-20T07:40:09.161Z,28.73
2019-03-20T07:42:37.737Z,26.47
2019-03-20T07:45:07.834Z,23.37
2019-03-20T07:47:37.502Z,26.27
2019-03-20T07:50:06.799Z,24.53
2019-03-20T07:52:37.461Z,23.27
2019-03-20T07:55:05.974Z,21.13
2019-03-20T07:57:36.842Z,20.30
2019-03-20T08:00:08.973Z,19.90
2019-03-20T08:02:40.027Z,18.10
2019-03-20T08:05:10.975Z,18.03
2019-03-20T08:07:39.537Z,18.13
2019-03-20T08:10:09.552Z,15.53
2019-03-20T08:12:40.361Z,14.30
2019-03-20T08:15:10.396Z,9.13
2019-03-20T08:17:38.630Z,11.47
2019-03-20T08:20:08.604Z,9.17
2019-03-20T08:22:39.524Z,9.90
2019-03-20T08:25:08.672Z,10.80
2019-03-20T08:27:39.293Z,11.50
2019-03-20T08:30:13.981Z,8.40
2019-03-20T08:32:44.730Z,7.23
2019-03-20T08:35:13.493Z,7.43
2019-03-20T08:37:41.985Z,8.57
2019-03-20T08:40:14.511Z,7.63
2019-03-20T08:42:47.928Z,7.37
2019-03-20T08:45:18.994Z,8.47
2019-03-20T08:47:47.648Z,7.40
2019-03-20T08:50:24.976Z,8.27
2019-03-20T08:52:55.765Z,7.70
2019-03-20T08:55:28.759Z,8.60
2019-03-20T08:58:01.770Z,7.40
2019-03-20T09:00:34.970Z,7.50
2019-03-20T09:03:03.193Z,7.40
2019-03-20T09:05:31.510Z,11.50
2019-03-20T09:08:04.203Z,11.53
2019-03-20T09:10:34.808Z,8.97
2019-03-20T09:13:05.466Z,11.30
2019-03-20T09:15:33.934Z,7.93
2019-03-20T09:18:04.404Z,6.90
2019-03-20T09:20:32.923Z,6.63
2019-03-20T09:23:04.088Z,6.37
2019-03-20T09:25:35.037Z,7.67
2019-03-20T09:28:06.358Z,7.77
2019-03-20T09:30:36.985Z,7.87
2019-03-20T09:33:05.397Z,8.70
2019-03-20T09:35:34.214Z,8.60
2019-03-20T09:38:02.583Z,8.43
2019-03-20T09:40:33.047Z,8.30
2019-03-20T09:43:01.574Z,7.70
2019-03-20T09:45:35.431Z,8.53
2019-03-20T09:48:06.038Z,8.70
2019-03-20T09:50:37.804Z,7.77
2019-03-20T09:53:15.761Z,15.33
2019-03-20T09:55:46.840Z,11.67
2019-03-20T09:58:17.572Z,10.10
2019-03-20T10:00:55.072Z,9.67
2019-03-20T10:03:23.536Z,10.70
2019-03-20T10:05:55.006Z,10.00
2019-03-20T10:08:25.523Z,11.57
2019-03-20T10:10:56.114Z,10.77
2019-03-20T10:13:24.300Z,9.20
2019-03-20T10:15:54.867Z,9.83
2019-03-20T10:18:23.097Z,11.10
2019-03-20T10:20:53.526Z,9.77
2019-03-20T10:23:23.939Z,8.90
2019-03-20T10:25:54.675Z,9.67
2019-03-20T10:28:25.652Z,9.70
2019-03-20T10:30:54.287Z,9.87
2019-03-20T10:33:27.322Z,9.87
2019-03-20T10:35:58.283Z,8.80
2019-03-20T10:38:26.855Z,8.23
2019-03-20T10:40:57.532Z,6.83
2019-03-20T10:43:25.746Z,7.20
2019-03-20T10:45:54.003Z,6.37
2019-03-20T10:48:25.199Z,6.63
2019-03-20T10:50:53.334Z,5.93
2019-03-20T10:53:25.182Z,5.83
2019-03-20T10:55:56.248Z,6.03
2019-03-20T10:58:27.010Z,7.20
2019-03-20T11:00:57.414Z,5.97
2019-03-20T11:03:26.049Z,5.80
2019-03-20T11:05:54.587Z,6.60
2019-03-20T11:08:27.244Z,9.30
2019-03-20T11:10:56.162Z,6.13
2019-03-20T11:13:24.668Z,23.50
2019-03-20T11:15:53.140Z,13.13
2019-03-20T11:18:23.849Z,9.20
2019-03-20T11:20:54.403Z,6.40
2019-03-20T11:23:24.948Z,6.33
2019-03-20T11:25:53.135Z,6.20
2019-03-20T11:28:21.282Z,6.87
2019-03-20T11:30:51.987Z,5.70
2019-03-20T11:33:20.262Z,5.70
2019-03-20T11:35:48.723Z,5.70
2019-03-20T11:38:16.920Z,6.03
2019-03-20T11:40:45.396Z,5.83
2019-03-20T11:43:13.537Z,5.70
2019-03-20T11:45:42.096Z,5.07
2019-03-20T11:48:10.421Z,5.77
2019-03-20T11:50:39.326Z,5.40
2019-03-20T11:53:10.111Z,7.80
2019-03-20T11:55:39.196Z,11.97
2019-03-20T11:58:09.852Z,5.10
2019-03-20T12:00:38.232Z,5.00
2019-03-20T12:03:06.745Z,4.93
2019-03-20T12:05:34.988Z,4.90
2019-03-20T12:08:03.478Z,5.50
2019-03-20T12:10:32.755Z,4.97
2019-03-20T12:13:07.847Z,5.63
2019-03-20T12:15:36.228Z,6.17
2019-03-20T12:18:07.041Z,7.13
2019-03-20T12:20:35.582Z,6.73
2019-03-20T12:23:06.167Z,6.97
2019-03-20T12:25:40.150Z,5.70
2019-03-20T12:28:10.992Z,6.10
2019-03-20T12:30:41.518Z,8.13
2019-03-20T12:33:14.568Z,6.23
2019-03-20T12:35:47.317Z,5.83
2019-03-20T12:38:15.670Z,7.13
2019-03-20T12:40:46.920Z,39.70
2019-03-20T12:43:17.508Z,7.90
2019-03-20T12:45:46.745Z,14.90
2019-03-20T12:48:18.738Z,10.87
2019-03-20T12:50:47.409Z,19.07
2019-03-20T12:53:19.733Z,11.93
2019-03-20T12:55:48.030Z,6.63
2019-03-20T12:58:20.831Z,6.23
2019-03-20T13:00:51.190Z,8.50
2019-03-20T13:03:24.951Z,9.80
2019-03-20T13:05:53.432Z,8.87
2019-03-20T13:08:58.352Z,7.00
2019-03-20T13:11:27.255Z,6.93
2019-03-20T13:13:57.659Z,6.77
2019-03-20T13:16:31.812Z,8.50
2019-03-20T13:19:02.416Z,6.50
2019-03-20T13:21:35.301Z,7.10
2019-03-20T13:24:06.141Z,6.90
2019-03-20T13:26:34.275Z,7.70
2019-03-20T13:29:04.816Z,6.40
2019-03-20T13:31:33.020Z,6.53
2019-03-20T13:34:05.503Z,6.73
2019-03-20T13:36:33.979Z,6.43
2019-03-20T13:39:02.391Z,6.23
2019-03-20T13:41:33.131Z,6.70
2019-03-20T13:44:03.580Z,7.03
2019-03-20T13:46:31.784Z,9.57
2019-03-20T13:49:04.491Z,12.20
2019-03-20T13:51:32.719Z,11.97
2019-03-20T13:54:01.074Z,12.70
2019-03-20T13:56:31.781Z,15.03
2019-03-20T13:59:02.049Z,23.43
2019-03-20T14:01:31.239Z,14.83
2019-03-20T14:04:02.009Z,24.80
2019-03-20T14:06:32.304Z,12.23
2019-03-20T14:09:02.871Z,14.03
2019-03-20T14:11:37.879Z,11.77
2019-03-20T14:14:08.584Z,13.73
2019-03-20T14:16:39.633Z,120.67
2019-03-20T14:19:10.687Z,33.90
2019-03-20T14:21:39.561Z,18.73
2019-03-20T14:24:07.893Z,13.60
2019-03-20T14:26:36.081Z,15.67
2019-03-20T14:29:04.280Z,22.53
2019-03-20T14:31:34.628Z,20.87
2019-03-20T14:34:05.289Z,15.60
2019-03-20T14:36:33.737Z,13.90
2019-03-20T14:39:05.967Z,11.97
2019-03-20T14:41:34.592Z,17.00
2019-03-20T14:44:09.415Z,10.63
2019-03-20T14:46:40.028Z,13.00
2019-03-20T14:49:14.825Z,8.20
2019-03-20T14:51:46.017Z,8.23
2019-03-20T14:54:14.481Z,8.77
2019-03-20T14:56:43.287Z,8.57
2019-03-20T14:59:11.604Z,9.17
2019-03-20T15:01:42.578Z,9.17
2019-03-20T15:04:13.978Z,8.73
2019-03-20T15:06:42.558Z,8.43
2019-03-20T15:09:13.622Z,9.43
2019-03-20T15:11:48.218Z,9.73
2019-03-20T15:14:16.375Z,9.23
2019-03-20T15:16:46.968Z,9.87
2019-03-20T15:19:19.962Z,10.03
2019-03-20T15:21:50.425Z,9.80
2019-03-20T15:24:19.085Z,9.60
2019-03-20T15:26:53.951Z,9.13
2019-03-20T15:29:26.688Z,9.63
2019-03-20T15:31:55.263Z,9.83
2019-03-20T15:34:23.755Z,10.63
2019-03-20T15:36:54.185Z,10.17
2019-03-20T15:39:26.937Z,10.23
2019-03-20T15:41:57.355Z,9.73
2019-03-20T15:44:27.902Z,9.60
2019-03-20T15:46:58.840Z,10.03
2019-03-20T15:49:27.484Z,10.37
2019-03-20T15:51:55.896Z,10.87
2019-03-20T15:54:24.948Z,10.63
2019-03-20T15:56:53.345Z,10.20
2019-03-20T15:59:23.906Z,10.80
2019-03-20T16:01:52.094Z,10.97
2019-03-20T16:04:24.727Z,11.70
2019-03-20T16:06:56.309Z,12.87
2019-03-20T16:09:29.518Z,14.57
2019-03-20T16:12:00.152Z,14.00
2019-03-20T16:14:28.338Z,28.13
2019-03-20T16:16:56.823Z,36.43
2019-03-20T16:19:28.972Z,47.73
2019-03-20T16:21:59.606Z,44.37
2019-03-20T16:24:27.838Z,39.37
2019-03-20T16:26:58.487Z,51.17
2019-03-20T16:29:32.202Z,40.37
2019-03-20T16:32:00.674Z,54.17
2019-03-20T16:34:29.373Z,85.83
2019-03-20T16:36:57.555Z,84.63
2019-03-20T16:39:29.135Z,79.50
2019-03-20T16:41:57.672Z,72.13
2019-03-20T16:44:25.838Z,58.40
2019-03-20T16:46:54.418Z,61.73
2019-03-20T16:49:24.937Z,73.63
2019-03-20T16:51:53.513Z,70.27
2019-03-20T16:54:24.148Z,53.70
2019-03-20T16:56:52.732Z,55.73
2019-03-20T16:59:23.363Z,58.60
2019-03-20T17:01:56.070Z,48.93
2019-03-20T17:04:26.692Z,39.87
2019-03-20T17:06:54.829Z,54.50
2019-03-20T17:09:26.472Z,58.73
2019-03-20T17:11:55.108Z,82.80
2019-03-20T17:14:26.144Z,93.57
2019-03-20T17:16:56.733Z,103.43
2019-03-20T17:19:29.312Z,93.13
2019-03-20T17:21:57.902Z,111.70
2019-03-20T17:24:28.482Z,100.37
2019-03-20T17:26:56.936Z,99.37
2019-03-20T17:29:27.785Z,95.43
2019-03-20T17:31:55.975Z,105.00
2019-03-20T17:34:24.257Z,99.87
2019-03-20T17:36:54.893Z,101.13
2019-03-20T17:39:23.446Z,81.00
2019-03-20T17:41:54.045Z,75.87
2019-03-20T17:44:22.422Z,75.53
2019-03-20T17:46:52.961Z,76.13
2019-03-20T17:49:21.633Z,75.73
2019-03-20T17:51:49.911Z,80.63
2019-03-20T17:54:18.421Z,91.87
2019-03-20T17:56:47.093Z,100.53
2019-03-20T17:59:15.550Z,124.93
2019-03-20T18:01:46.708Z,116.80
2019-03-20T18:04:17.620Z,107.03
2019-03-20T18:06:48.349Z,121.10
2019-03-20T18:09:21.401Z,111.17
2019-03-20T18:11:50.693Z,115.87
2019-03-20T18:14:18.929Z,114.70
2019-03-20T18:16:49.321Z,102.23
2019-03-20T18:19:17.469Z,103.83
2019-03-20T18:21:48.179Z,104.23
2019-03-20T18:24:18.822Z,86.80
2019-03-20T18:26:47.493Z,77.77
2019-03-20T18:29:18.221Z,100.57
2019-03-20T18:31:46.837Z,94.97
2019-03-20T18:34:15.183Z,98.80
2019-03-20T18:36:43.395Z,75.67
2019-03-20T18:39:11.942Z,70.97
2019-03-20T18:41:42.604Z,72.80
2019-03-20T18:44:10.924Z,74.27
2019-03-20T18:46:43.913Z,70.23
2019-03-20T18:49:12.185Z,67.97
2019-03-20T18:51:40.608Z,62.60
2019-03-20T18:54:09.113Z,62.57
2019-03-20T18:56:40.307Z,60.50
2019-03-20T18:59:09.404Z,58.43
2019-03-20T19:01:40.132Z,59.90
2019-03-20T19:04:08.277Z,67.73
2019-03-20T19:06:38.564Z,61.20
2019-03-20T19:09:08.847Z,49.83
2019-03-20T19:11:37.552Z,49.20
2019-03-20T19:14:09.065Z,47.17
2019-03-20T19:16:40.021Z,54.50
2019-03-20T19:19:12.410Z,61.30
2019-03-20T19:21:43.034Z,88.57
2019-03-20T19:24:11.415Z,58.23
2019-03-20T19:26:39.896Z,59.67
2019-03-20T19:29:08.105Z,64.83
2019-03-20T19:31:39.106Z,94.40
2019-03-20T19:34:09.554Z,180.77
2019-03-20T19:36:37.981Z,191.17
2019-03-20T19:39:06.669Z,241.93
2019-03-20T19:41:34.956Z,357.17
2019-03-20T19:44:05.620Z,249.67
2019-03-20T19:46:38.360Z,234.13
2019-03-20T19:49:11.275Z,232.07
2019-03-20T19:51:39.454Z,229.40
2019-03-20T19:54:08.213Z,113.30
2019-03-20T19:56:36.518Z,84.30
2019-03-20T19:59:06.997Z,98.30
2019-03-20T20:01:35.207Z,94.53
2019-03-20T20:04:03.446Z,76.73
2019-03-20T20:06:34.403Z,46.53
2019-03-20T20:09:06.250Z,41.50
2019-03-20T20:11:34.442Z,39.87
2019-03-20T20:14:04.891Z,69.70
2019-03-20T20:16:34.348Z,64.87
2019-03-20T20:19:04.601Z,81.07
2019-03-20T20:21:32.779Z,51.97
2019-03-20T20:24:03.665Z,57.97
2019-03-20T20:26:31.820Z,63.27
2019-03-20T20:29:00.147Z,59.40
2019-03-20T20:31:32.906Z,71.93
2019-03-20T20:34:03.511Z,65.00
2019-03-20T20:36:31.676Z,66.33
2019-03-20T20:39:02.396Z,76.93
2019-03-20T20:41:30.560Z,84.90
2019-03-20T20:44:00.937Z,93.93
2019-03-20T20:46:31.468Z,95.50
2019-03-20T20:49:02.326Z,93.90
2019-03-20T20:51:30.460Z,86.77
2019-03-20T20:54:01.201Z,82.17
2019-03-20T20:56:31.799Z,70.00
2019-03-20T20:59:02.466Z,66.83
2019-03-20T21:01:30.926Z,68.20
2019-03-20T21:04:01.576Z,58.30
2019-03-20T21:06:32.119Z,65.43
2019-03-20T21:09:00.357Z,55.13
2019-03-20T21:11:30.947Z,64.30
2019-03-20T21:13:59.145Z,64.77
2019-03-20T21:16:27.562Z,59.67
2019-03-20T21:18:58.703Z,67.40
2019-03-20T21:21:31.404Z,59.47
2019-03-20T21:24:19.922Z,64.80
2019-03-20T21:27:07.130Z,65.20
2019-03-20T21:29:51.623Z,67.10
2019-03-20T21:32:38.941Z,68.83
2019-03-20T21:35:09.155Z,79.40
2019-03-20T21:37:55.516Z,61.43
2019-03-20T21:40:23.732Z,88.67
2019-03-20T21:43:06.330Z,87.33
2019-03-20T21:45:33.078Z,78.97
2019-03-20T21:48:01.359Z,80.03
2019-03-20T21:50:35.488Z,94.17
2019-03-20T21:53:03.705Z,89.00
2019-03-20T21:55:50.199Z,115.83
2019-03-20T21:58:24.645Z,97.57
2019-03-20T22:01:12.593Z,130.57
2019-03-20T22:03:43.900Z,113.70
2019-03-20T22:06:30.157Z,110.47
2019-03-20T22:09:00.546Z,101.40
2019-03-20T22:11:30.600Z,95.10
2019-03-20T22:14:02.819Z,87.97
2019-03-20T22:16:51.737Z,83.90
2019-03-20T22:19:24.431Z,83.67
2019-03-20T22:21:55.416Z,98.53
2019-03-20T22:24:34.183Z,95.10
2019-03-20T22:27:19.033Z,64.57
2019-03-20T22:29:47.237Z,52.50
2019-03-20T22:32:19.410Z,48.83
2019-03-20T22:34:51.730Z,47.13
2019-03-20T22:37:20.206Z,41.60
2019-03-20T22:40:05.457Z,37.47
2019-03-20T22:42:43.647Z,37.93
2019-03-20T22:45:14.124Z,37.77
2019-03-20T22:47:59.228Z,39.57
2019-03-20T22:50:36.668Z,47.70
2019-03-20T22:53:09.201Z,52.60
2019-03-20T22:55:41.782Z,53.23
2019-03-20T22:58:21.338Z,60.73
2019-03-20T23:00:51.236Z,43.83
2019-03-20T23:03:26.446Z,53.93
2019-03-20T23:05:54.591Z,51.33
2019-03-20T23:08:25.195Z,49.40
2019-03-20T23:10:53.373Z,49.30
2019-03-20T23:13:23.853Z,49.63
2019-03-20T23:15:54.328Z,52.30
2019-03-20T23:18:22.494Z,51.17
2019-03-20T23:20:52.857Z,49.77
2019-03-20T23:23:24.249Z,54.07
2019-03-20T23:25:54.709Z,54.87
2019-03-20T23:28:29.243Z,51.13
2019-03-20T23:30:59.490Z,51.27
2019-03-20T23:33:27.703Z,54.60
2019-03-20T23:35:55.982Z,51.17
2019-03-20T23:38:28.577Z,53.07
2019-03-20T23:40:58.550Z,51.57
2019-03-20T23:43:26.757Z,48.67
2019-03-20T23:45:59.131Z,49.50
2019-03-20T23:48:31.808Z,48.17
2019-03-20T23:51:01.625Z,46.20
2019-03-20T23:53:30.685Z,45.93
2019-03-20T23:55:58.879Z,41.83
2019-03-20T23:58:27.066Z,43.57
